Latest Coastal Weather Observations for Milingimbi

IDD60701

Issued at 6:31 am CST Thursday 30 March 2017 (issued every 10 minutes, with the page automatically refreshed every 10 minutes)

About coastal observations | Map of coastal stations | Coastal observations for NT | Marine services | Other Formats
Station Details ID: 014404 Name: MILINGIMBI AIRPORT Lat: -12.09 Lon: 134.89 Height: 15.0 m
Data from the previous 72 hours. | See also: Recent months at Milingimbi
Date/Time
CST
Temp
°C
Wind Pressure Rain since
9am
mm
Weather Cloud Vis
km
Sea
Height
m
Swell
Dir  Spd
kts
Gust
kts
hPa Trend Height
m
Period
s
Dir
30/06:30am 24.6 WNW 4 5 1008.4 - 20.8 - - - - - - -
30/06:00am 24.8 WNW 4 5 1008.3 - 20.8 - - - - - - -
30/05:30am 25.0 W 5 7 1008.2 - 20.8 - - - - - - -
30/05:00am 25.0 W 5 7 1008.3 - 20.8 - - - - - - -
30/04:30am 25.1 W 6 9 1008.2 - 20.8 - - - - - - -
30/04:00am 25.2 W 6 8 1008.2 - 20.8 - - - - - - -
30/03:30am 25.3 WSW 7 9 1008.1 - 20.8 - - - - - - -
30/03:00am 25.5 W 7 11 1007.9 - 20.8 - - - - - - -
30/02:30am 25.6 W 8 12 1008.3 - 20.8 - - - - - - -
30/02:00am 25.7 W 8 11 1008.5 - 20.8 - - - - - - -
30/01:30am 25.7 W 7 11 1008.7 - 20.8 - - - - - - -
30/01:00am 25.6 W 8 10 1008.8 - 20.8 - - - - - - -
30/12:30am 25.2 WSW 5 7 1009.1 - 20.8 - - - - - - -
30/12:00am 24.9 WSW 5 7 1008.9 - 20.8 - - - - - - -
 
Date/Time
CST
Temp
°C
Wind Pressure Rain since
9am
mm
Weather Cloud Vis
km
Sea
Height
m
Swell
Dir  Spd
kts
Gust
kts
hPa Trend Height
m
Period
s
Dir
29/11:30pm 24.6 WSW 4 6 1008.8 - 20.8 - - - - - - -
29/11:00pm 24.6 SW 6 9 1009.3 - 20.8 - - - - - - -
29/10:30pm 24.8 SW 4 6 1009.4 - 20.8 - - - - - - -
29/10:00pm 24.6 WSW 5 8 1009.2 - 20.8 - - - - - - -
29/09:30pm 24.6 NW 6 8 1009.2 - 20.8 - - - - - - -
29/09:00pm 24.4 WNW 8 13 1009.1 - 20.6 - - - - - - -
29/08:30pm 24.2 WNW 10 14 1008.9 - 20.6 - - - - - - -
29/08:00pm 24.1 W 11 15 1008.0 - 20.2 - - - - - - -
29/07:30pm 24.4 WNW 5 7 1008.1 - 19.8 - - - - - - -
29/07:00pm 23.5 ENE 4 6 1007.4 - 19.2 - - - - - - -
29/06:30pm 23.1 NNE 6 9 1006.3 - 19.2 - - - - - - -
29/06:00pm 22.6 ENE 5 9 1007.7 - 18.0 - - - - - - -
29/05:32pm 22.6 NE 15 26 1008.4 - 9.6 - - - - - - -
29/05:30pm 22.8 NE 14 26 1008.4 - 7.0 - - - - - - -
29/05:25pm 25.1 ENE 14 26 1008.2 - 0.2 - - - - - - -
29/05:00pm 29.4 NW 9 18 1006.2 - 0.0 - - - - - - -
29/04:30pm 30.4 NW 9 15 1005.4 - 0.0 - - - - - - -
29/04:00pm 30.7 NW 11 16 1005.0 - 0.0 - - - - - - -
29/03:30pm 31.4 NW 11 17 1004.7 - 0.0 - - - - - - -
29/03:00pm 31.9 NW 10 16 1005.5 - 0.0 - - - - - - -
29/02:30pm 31.8 WNW 11 16 1005.7 - 0.0 - - - - - - -
29/02:00pm 31.6 NW 10 14 1006.1 - 0.0 - - - - - - -
29/01:30pm 31.5 NW 9 16 1006.7 - 0.0 - - - - - - -
29/01:00pm 32.6 WNW 8 13 1006.9 - 0.0 - - - - - - -
29/12:30pm 32.4 WNW 7 9 1007.1 - 0.0 - - - - - - -
29/12:00pm 32.0 W 7 11 1007.2 - 0.0 - - - - - - -
29/11:30am 31.8 W 8 11 1007.5 - 0.0 - - - - - - -
29/11:00am 31.6 W 8 11 1007.7 - 0.0 - - - - - - -
29/10:30am 31.7 W 8 13 1008.2 - 0.0 - - - - - - -
29/10:00am 31.3 W 8 13 1008.2 - 0.0 - - - - - - -
29/09:30am 30.8 W 9 12 1008.2 - 0.0 - - - - - - -
29/09:00am 30.5 WNW 9 13 1007.9 - 2.4 - - - - - - -
29/08:30am 29.8 W 9 14 1007.9 - 2.4 - - - - - - -
29/08:00am 29.1 W 8 11 1007.5 - 2.4 - - - - - - -
29/07:30am 28.5 W 7 9 1007.0 - 2.4 - - - - - - -
29/07:00am 28.2 W 6 8 1007.2 - 2.4 - - - - - - -
29/06:30am 28.1 W 6 8 1006.8 - 2.4 - - - - - - -
29/06:00am 28.2 W 6 8 1006.5 - 2.4 - - - - - - -
29/05:30am 28.1 W 7 10 1006.3 - 2.4 - - - - - - -
29/05:00am 27.1 WNW 4 5 1006.2 - 2.4 - - - - - - -
29/04:30am 26.9 W 4 5 1005.9 - 2.4 - - - - - - -
29/04:00am 26.7 W 3 4 1006.0 - 2.4 - - - - - - -
29/03:30am 26.5 CALM 0 0 1006.2 - 2.4 - - - - - - -
29/03:00am 26.4 CALM 0 0 1006.5 - 2.4 - - - - - - -
29/02:30am 26.7 SW 3 5 1006.7 - 2.4 - - - - - - -
29/02:00am 26.8 CALM 0 0 1006.7 - 2.4 - - - - - - -
29/01:30am 26.9 CALM 0 0 1006.9 - 2.4 - - - - - - -
29/01:00am 26.9 CALM 0 0 1007.0 - 2.4 - - - - - - -
29/12:30am 26.9 CALM 0 0 1007.3 - 2.4 - - - - - - -
29/12:00am 26.9 CALM 0 0 1007.5 - 2.4 - - - - - - -
 
Date/Time
CST
Temp
°C
Wind Pressure Rain since
9am
mm
Weather Cloud Vis
km
Sea
Height
m
Swell
Dir  Spd
kts
Gust
kts
hPa Trend Height
m
Period
s
Dir
28/11:30pm 27.2 CALM 0 0 1007.8 - 2.4 - - - - - - -
28/11:00pm 27.0 SSW 2 4 1008.1 - 2.4 - - - - - - -
28/10:30pm 27.3 SW 1 3 1008.0 - 2.4 - - - - - - -
28/10:00pm 27.3 CALM 0 3 1007.7 - 2.4 - - - - - - -
28/09:30pm 27.0 W 2 7 1007.3 - 2.4 - - - - - - -
28/09:00pm 27.0 W 4 5 1007.0 - 2.4 - - - - - - -
28/08:30pm 27.0 WSW 3 4 1007.0 - 2.4 - - - - - - -
28/08:00pm 26.9 WNW 3 5 1007.0 - 2.4 - - - - - - -
28/07:30pm 26.5 NNE 1 4 1006.6 - 2.4 - - - - - - -
28/07:00pm 26.0 NE 3 5 1006.2 - 2.4 - - - - - - -
28/06:30pm 26.8 WNW 5 7 1006.1 - 2.4 - - - - - - -
28/06:00pm 26.7 SW 2 5 1005.4 - 2.4 - - - - - - -
28/05:30pm 27.4 WSW 7 14 1005.7 - 2.4 - - - - - - -
28/05:22pm 27.7 SW 10 14 1005.9 - 1.6 - - - - - - -
28/05:00pm 33.0 NW 9 13 1005.0 - 0.0 - - - - - - -
28/04:30pm 34.3 WNW 8 12 1004.6 - 0.0 - - - - - - -
28/04:00pm 34.8 W 7 10 1004.9 - 0.0 - - - - - - -
28/03:30pm 35.0 W 8 13 1005.0 - 0.0 - - - - - - -
28/03:00pm 34.8 W 8 12 1005.5 - 0.0 - - - - - - -
28/02:30pm 35.6 WSW 7 11 1005.8 - 0.0 - - - - - - -
28/02:00pm 34.9 WSW 8 11 1006.2 - 0.0 - - - - - - -
28/01:30pm 35.0 W 8 13 1006.6 - 0.0 - - - - - - -
28/01:00pm 34.6 W 8 13 1007.1 - 0.0 - - - - - - -
28/12:30pm 34.2 W 9 11 1007.6 - 0.0 - - - - - - -
28/12:00pm 33.9 W 8 11 1008.0 - 0.0 - - - - - - -
28/11:30am 33.1 WSW 7 11 1008.4 - 0.0 - - - - - - -
28/11:00am 32.8 WSW 8 12 1008.8 - 0.0 - - - - - - -
28/10:30am 31.9 W 9 12 1009.1 - 0.0 - - - - - - -
28/10:00am 30.7 W 7 11 1009.3 - 0.0 - - - - - - -
28/09:30am 29.6 W 10 16 1009.5 - 0.0 - - - - - - -
28/09:00am 29.1 W 10 16 1009.3 - 1.4 - - - - - - -
28/08:30am 28.9 W 8 12 1009.3 - 1.4 - - - - - - -
28/08:00am 28.3 W 8 11 1009.0 - 1.4 - - - - - - -
28/07:30am 27.7 W 7 11 1008.7 - 1.4 - - - - - - -
28/07:00am 27.3 W 7 12 1008.6 - 1.4 - - - - - - -
28/06:30am 27.1 W 7 9 1008.2 - 1.4 - - - - - - -
28/06:00am 27.1 W 7 11 1008.0 - 1.4 - - - - - - -
28/05:30am 27.0 W 7 10 1007.9 - 1.4 - - - - - - -
28/05:00am 27.0 W 7 9 1007.6 - 1.4 - - - - - - -
28/04:30am 26.9 W 6 9 1007.6 - 1.4 - - - - - - -
28/04:00am 27.0 W 5 8 1007.7 - 1.4 - - - - - - -
28/03:30am 27.0 W 7 10 1007.4 - 1.4 - - - - - - -
28/03:00am 26.7 W 5 7 1007.5 - 1.4 - - - - - - -
28/02:30am 26.7 WSW 5 7 1007.7 - 1.4 - - - - - - -
28/02:00am 26.8 W 4 5 1008.0 - 1.4 - - - - - - -
28/01:30am 26.8 W 4 6 1008.5 - 1.4 - - - - - - -
28/01:00am 26.9 W 1 4 1008.8 - 1.4 - - - - - - -
28/12:30am 26.9 WSW 4 5 1008.8 - 1.4 - - - - - - -
28/12:00am 27.0 WSW 4 4 1009.0 - 1.4 - - - - - - -
 
Date/Time
CST
Temp
°C
Wind Pressure Rain since
9am
mm
Weather Cloud Vis
km
Sea
Height
m
Swell
Dir  Spd
kts
Gust
kts
hPa Trend Height
m
Period
s
Dir
27/11:30pm 27.2 W 3 5 1009.5 - 1.4 - - - - - - -
27/11:00pm 27.3 WSW 6 8 1009.5 - 1.4 - - - - - - -
27/10:30pm 27.5 W 6 8 1009.5 - 1.4 - - - - - - -
27/10:00pm 27.5 W 6 9 1009.6 - 1.4 - - - - - - -
27/09:30pm 26.9 NW 3 5 1009.6 - 1.4 - - - - - - -
27/09:00pm 26.8 W 4 8 1009.2 - 1.4 - - - - - - -
27/08:30pm 26.5 WSW 6 8 1008.8 - 1.4 - - - - - - -
27/08:00pm 26.4 WNW 5 8 1008.6 - 1.4 - - - - - - -
27/07:30pm 26.3 NNE 3 4 1009.0 - 1.4 - - - - - - -
27/07:00pm 26.7 W 5 8 1008.6 - 1.4 - - - - - - -
27/06:30pm 27.5 WSW 9 13 1009.0 - 1.4 - - - - - - -
27/06:00pm 29.6 NW 9 17 1007.7 - 1.4 - - - - - - -
27/05:30pm 29.8 NNW 7 10 1007.2 - 1.4 - - - - - - -
27/05:00pm 30.0 NW 5 9 1007.6 - 1.4 - - - - - - -
27/04:30pm 29.6 NW 6 9 1006.9 - 1.4 - - - - - - -
27/04:00pm 29.9 NNW 6 10 1007.2 - 1.2 - - - - - - -
27/03:30pm 31.0 NNW 5 12 1006.8 - 1.2 - - - - - - -
27/03:00pm 31.4 NNW 8 12 1006.9 - 1.2 - - - - - - -
27/02:30pm 31.7 NNW 6 11 1007.6 - 1.2 - - - - - - -
27/02:00pm 30.9 NW 6 10 1007.9 - 1.2 - - - - - - -
27/01:30pm 33.0 NNW 9 14 1008.3 - 0.0 - - - - - - -
27/01:00pm 33.6 WNW 7 11 1008.5 - 0.0 - - - - - - -
27/12:30pm 33.9 W 6 11 1008.9 - 0.0 - - - - - - -
27/12:00pm 33.3 WNW 7 12 1008.9 - 0.0 - - - - - - -
27/11:30am 33.1 WNW 8 12 1009.5 - 0.0 - - - - - - -
27/11:00am 33.1 W 10 14 1010.0 - 0.0 - - - - - - -
27/10:30am 32.1 W 9 14 1010.6 - 0.0 - - - - - - -
27/10:00am 31.9 W 10 14 1011.1 - 0.0 - - - - - - -
27/09:30am 31.2 WNW 8 11 1011.0 - 0.0 - - - - - - -
27/09:00am 30.0 W 9 14 1010.8 - 0.0 - - - - - - -
27/08:30am 29.3 W 8 13 1010.9 - 0.0 - - - - - - -
27/08:00am 28.2 W 7 11 1010.8 - 0.0 - - - - - - -
27/07:30am 27.4 W 6 8 1010.6 - 0.0 - - - - - - -
27/07:00am 26.8 W 6 8 1010.2 - 0.0 - - - - - - -

Other Formats:

Comma delimited format used in spreadsheet applications
http://www.bom.gov.au/fwo/IDD60701/IDD60701.94140.axf

JavaScript Object Notation format (JSON) in row-major order
http://www.bom.gov.au/fwo/IDD60701/IDD60701.94140.json